createdAt,value
2022-09-06T00:02:11.384Z,16.13
2022-09-06T00:04:39.036Z,15.98
2022-09-06T00:07:06.816Z,16.11
2022-09-06T00:09:36.223Z,16.06
2022-09-06T00:12:04.392Z,16.16
2022-09-06T00:14:32.151Z,16.08
2022-09-06T00:16:59.933Z,15.98
2022-09-06T00:19:27.866Z,15.90
2022-09-06T00:21:55.547Z,15.89
2022-09-06T00:24:23.498Z,15.74
2022-09-06T00:26:52.522Z,15.68
2022-09-06T00:29:20.238Z,15.82
2022-09-06T00:31:47.925Z,15.65
2022-09-06T00:34:15.622Z,15.67
2022-09-06T00:36:43.333Z,15.75
2022-09-06T00:39:11.135Z,15.55
2022-09-06T00:41:38.963Z,15.61
2022-09-06T00:44:08.198Z,15.49
2022-09-06T00:46:37.339Z,15.59
2022-09-06T00:49:08.359Z,15.59
2022-09-06T00:51:37.804Z,15.54
2022-09-06T00:54:07.708Z,15.58
2022-09-06T00:56:38.966Z,15.51
2022-09-06T00:59:08.617Z,15.62
2022-09-06T01:01:36.442Z,15.59
2022-09-06T01:04:04.942Z,15.52
2022-09-06T01:06:41.645Z,15.50
2022-09-06T01:09:30.906Z,15.53
2022-09-06T01:12:14.793Z,15.40
2022-09-06T01:15:02.281Z,15.40
2022-09-06T01:17:42.672Z,15.33
2022-09-06T01:20:43.568Z,15.38
2022-09-06T01:23:33.066Z,15.27
2022-09-06T01:26:15.080Z,15.24
2022-09-06T01:28:46.058Z,15.30
2022-09-06T01:31:23.841Z,15.23
2022-09-06T01:34:12.733Z,15.27
2022-09-06T01:37:06.301Z,15.25
2022-09-06T01:39:35.583Z,15.09
2022-09-06T01:42:08.567Z,15.14
2022-09-06T01:44:39.796Z,15.11
2022-09-06T01:47:22.670Z,15.17
2022-09-06T01:50:04.089Z,15.20
2022-09-06T01:52:39.383Z,15.17
2022-09-06T01:55:22.243Z,15.14
2022-09-06T01:58:02.638Z,15.10
2022-09-06T02:00:36.965Z,15.11
2022-09-06T02:03:14.269Z,15.07
2022-09-06T02:05:47.447Z,15.11
2022-09-06T02:08:19.629Z,15.16
2022-09-06T02:10:53.609Z,15.14
2022-09-06T02:13:25.365Z,15.08
2022-09-06T02:16:01.042Z,15.05
2022-09-06T02:18:32.547Z,15.03
2022-09-06T02:21:04.062Z,15.00
2022-09-06T02:23:35.932Z,15.05
2022-09-06T02:26:08.040Z,15.02
2022-09-06T02:28:36.123Z,14.99
2022-09-06T02:31:12.185Z,15.02
2022-09-06T02:33:42.327Z,14.90
2022-09-06T02:36:10.598Z,14.96
2022-09-06T02:38:41.579Z,14.82
2022-09-06T02:41:10.025Z,14.90
2022-09-06T02:43:37.897Z,14.83
2022-09-06T02:46:07.141Z,14.82
2022-09-06T02:48:34.907Z,14.82
2022-09-06T02:51:04.149Z,14.87
2022-09-06T02:53:31.978Z,14.83
2022-09-06T02:55:59.761Z,14.88
2022-09-06T02:58:27.981Z,14.94
2022-09-06T03:00:55.734Z,14.84
2022-09-06T03:03:24.964Z,14.81
2022-09-06T03:05:54.137Z,14.74
2022-09-06T03:08:25.740Z,14.74
2022-09-06T03:10:56.153Z,14.72
2022-09-06T03:13:25.099Z,14.74
2022-09-06T03:15:53.990Z,14.54
2022-09-06T03:18:21.704Z,14.60
2022-09-06T03:20:51.907Z,14.62
2022-09-06T03:23:20.834Z,14.47
2022-09-06T03:25:48.859Z,14.55
2022-09-06T03:28:17.457Z,14.50
2022-09-06T03:30:47.475Z,14.46
2022-09-06T03:33:15.564Z,14.42
2022-09-06T03:35:52.273Z,14.57
2022-09-06T03:38:20.358Z,14.46
2022-09-06T03:40:49.013Z,14.47
2022-09-06T03:43:18.420Z,14.39
2022-09-06T03:45:47.712Z,14.45
2022-09-06T03:48:16.322Z,14.35
2022-09-06T03:50:47.156Z,14.30
2022-09-06T03:53:17.546Z,14.28
2022-09-06T03:55:46.053Z,14.36
2022-09-06T03:58:13.971Z,14.32
2022-09-06T04:00:42.088Z,14.17
2022-09-06T04:03:09.959Z,14.29
2022-09-06T04:05:37.815Z,14.28
2022-09-06T04:08:05.931Z,14.20
2022-09-06T04:10:35.038Z,14.36
2022-09-06T04:13:02.747Z,14.25
2022-09-06T04:15:30.378Z,14.25
2022-09-06T04:17:58.382Z,14.28
2022-09-06T04:20:26.022Z,14.29
2022-09-06T04:22:53.637Z,14.38
2022-09-06T04:25:21.283Z,14.37
2022-09-06T04:27:50.271Z,14.42
2022-09-06T04:30:18.213Z,14.33
2022-09-06T04:32:46.319Z,14.30
2022-09-06T04:35:14.351Z,14.22
2022-09-06T04:37:42.032Z,14.32
2022-09-06T04:40:10.747Z,14.37
2022-09-06T04:42:38.451Z,14.31
2022-09-06T04:45:08.827Z,14.33
2022-09-06T04:47:36.678Z,14.34
2022-09-06T04:50:04.922Z,14.26
2022-09-06T04:52:32.588Z,14.27
2022-09-06T04:55:00.238Z,14.28
2022-09-06T04:57:27.938Z,14.32
2022-09-06T04:59:55.745Z,14.47
2022-09-06T05:02:24.890Z,14.34
2022-09-06T05:04:53.646Z,14.48
2022-09-06T05:07:21.354Z,14.41
2022-09-06T05:09:49.087Z,14.48
2022-09-06T05:12:16.773Z,14.46
2022-09-06T05:14:44.480Z,14.61
2022-09-06T05:17:14.560Z,14.44
2022-09-06T05:19:43.579Z,14.57
2022-09-06T05:22:11.993Z,14.52
2022-09-06T05:24:39.816Z,14.56
2022-09-06T05:27:07.633Z,14.37
2022-09-06T05:29:35.294Z,14.63
2022-09-06T05:32:03.386Z,14.72
2022-09-06T05:34:31.127Z,14.72
2022-09-06T05:37:00.194Z,14.71
2022-09-06T05:39:27.980Z,14.78
2022-09-06T05:41:55.665Z,14.77
2022-09-06T05:44:23.361Z,15.07
2022-09-06T05:46:51.063Z,14.96
2022-09-06T05:49:18.770Z,14.99
2022-09-06T05:51:51.999Z,15.11
2022-09-06T05:54:21.021Z,15.12
2022-09-06T05:56:48.754Z,15.18
2022-09-06T05:59:16.744Z,15.39
2022-09-06T06:01:49.351Z,15.37
2022-09-06T06:04:18.620Z,15.49
2022-09-06T06:06:47.427Z,15.52
2022-09-06T06:09:15.245Z,15.36
2022-09-06T06:11:44.330Z,15.31
2022-09-06T06:14:12.203Z,15.47
2022-09-06T06:16:39.965Z,15.40
2022-09-06T06:19:07.720Z,15.83
2022-09-06T06:21:35.832Z,15.66
2022-09-06T06:24:05.783Z,15.54
2022-09-06T06:26:36.069Z,15.59
2022-09-06T06:29:08.076Z,15.56
2022-09-06T06:31:36.614Z,15.51
2022-09-06T06:34:04.909Z,15.75
2022-09-06T06:36:34.762Z,16.00
2022-09-06T06:39:04.857Z,16.04
2022-09-06T06:41:34.117Z,15.84
2022-09-06T06:44:04.304Z,15.98
2022-09-06T06:46:37.909Z,16.27
2022-09-06T06:49:06.251Z,16.24
2022-09-06T06:51:37.190Z,16.41
2022-09-06T06:54:05.830Z,16.61
2022-09-06T06:56:35.896Z,16.75
2022-09-06T06:59:05.501Z,16.61
2022-09-06T07:01:36.021Z,17.02
2022-09-06T07:04:04.465Z,17.15
2022-09-06T07:09:21.384Z,17.03
2022-09-06T07:11:49.989Z,17.05
2022-09-06T07:14:18.376Z,17.06
2022-09-06T07:16:47.993Z,17.14
2022-09-06T07:22:05.349Z,16.99
2022-09-06T07:24:33.622Z,16.93
2022-09-06T07:29:48.941Z,17.21
2022-09-06T07:32:18.012Z,16.95
2022-09-06T07:34:45.637Z,16.96
2022-09-06T07:37:13.281Z,17.16
2022-09-06T07:39:41.622Z,17.15
2022-09-06T07:42:09.895Z,17.09
2022-09-06T07:44:37.590Z,17.15
2022-09-06T07:55:31.027Z,17.94
2022-09-06T07:57:58.815Z,17.73
2022-09-06T08:00:26.472Z,17.70
2022-09-06T08:02:54.200Z,17.51
2022-09-06T08:10:58.492Z,17.96
2022-09-06T08:13:26.278Z,17.80
2022-09-06T08:15:59.493Z,17.87
2022-09-06T08:18:27.235Z,18.02
2022-09-06T08:20:56.513Z,17.96
2022-09-06T08:23:24.168Z,17.91
2022-09-06T08:25:59.055Z,18.15
2022-09-06T08:28:28.972Z,17.98
2022-09-06T08:30:56.805Z,18.14
2022-09-06T08:33:25.757Z,18.22
2022-09-06T08:35:58.995Z,18.24
2022-09-06T08:38:27.264Z,18.28
2022-09-06T08:40:56.236Z,18.57
2022-09-06T08:43:24.214Z,18.40
2022-09-06T08:45:57.443Z,18.71
2022-09-06T08:48:28.654Z,18.75
2022-09-06T08:51:08.844Z,18.65
2022-09-06T08:53:42.623Z,18.59
2022-09-06T08:56:16.586Z,18.43
2022-09-06T08:59:01.978Z,18.64
2022-09-06T09:01:38.811Z,18.61
2022-09-06T09:04:13.165Z,18.87
2022-09-06T09:06:42.213Z,19.09
2022-09-06T09:09:14.811Z,18.88
2022-09-06T09:11:46.682Z,18.89
2022-09-06T09:14:18.005Z,19.04
2022-09-06T09:16:45.885Z,19.12
2022-09-06T09:19:14.638Z,18.91
2022-09-06T09:21:43.761Z,18.75
2022-09-06T09:24:13.399Z,18.96
2022-09-06T09:26:51.821Z,18.90
2022-09-06T09:29:25.343Z,18.92
2022-09-06T09:31:56.679Z,19.11
2022-09-06T09:34:33.648Z,19.16
2022-09-06T09:40:15.223Z,19.09
2022-09-06T09:42:43.117Z,19.29
2022-09-06T09:45:25.512Z,19.36
2022-09-06T09:47:53.529Z,19.36
2022-09-06T09:50:28.024Z,19.44
2022-09-06T09:53:07.762Z,19.49
2022-09-06T09:55:35.516Z,19.85
2022-09-06T09:58:03.729Z,19.88
2022-09-06T10:00:37.023Z,19.94
2022-09-06T10:03:13.603Z,20.08
2022-09-06T10:05:42.629Z,19.95
2022-09-06T10:08:14.153Z,20.09
2022-09-06T10:10:43.919Z,20.30
2022-09-06T10:13:20.566Z,20.50
2022-09-06T10:15:49.848Z,20.46
2022-09-06T10:18:30.092Z,20.24
2022-09-06T10:21:02.033Z,20.35
2022-09-06T10:26:49.076Z,20.94
2022-09-06T10:29:27.021Z,20.99
2022-09-06T10:32:11.113Z,20.93
2022-09-06T10:35:04.834Z,20.72
2022-09-06T10:37:48.294Z,21.12
2022-09-06T10:40:27.769Z,21.14
2022-09-06T10:42:59.112Z,20.97
2022-09-06T10:45:39.318Z,21.03
2022-09-06T10:48:14.863Z,21.20
2022-09-06T10:50:52.642Z,21.12
2022-09-06T10:53:33.615Z,21.14
2022-09-06T10:56:08.007Z,21.10
2022-09-06T11:01:38.114Z,21.23
2022-09-06T11:04:12.674Z,21.03
2022-09-06T11:06:45.921Z,21.08
2022-09-06T11:09:19.972Z,21.12
2022-09-06T11:11:58.499Z,21.20
2022-09-06T11:14:29.777Z,21.30
2022-09-06T11:17:04.914Z,21.19
2022-09-06T11:19:41.976Z,21.27
2022-09-06T11:22:24.729Z,21.28
2022-09-06T11:25:20.013Z,21.45
2022-09-06T11:27:57.784Z,21.26
2022-09-06T11:30:27.879Z,21.23
2022-09-06T11:33:10.462Z,21.24
2022-09-06T11:35:39.881Z,21.16
2022-09-06T11:38:21.595Z,21.41
2022-09-06T11:40:59.185Z,21.27
2022-09-06T11:43:49.288Z,21.46
2022-09-06T11:46:54.383Z,21.34
2022-09-06T11:49:37.295Z,21.68
2022-09-06T11:52:43.891Z,21.91
2022-09-06T11:55:14.031Z,21.95
2022-09-06T11:57:46.203Z,21.69
2022-09-06T12:00:23.843Z,21.72
2022-09-06T12:02:52.348Z,22.14
2022-09-06T12:05:26.484Z,21.91
2022-09-06T12:08:28.165Z,21.92
2022-09-06T12:11:07.768Z,21.93
2022-09-06T12:13:55.635Z,21.79
2022-09-06T12:16:25.264Z,21.84
2022-09-06T12:19:01.329Z,22.09
2022-09-06T12:21:52.357Z,21.95
2022-09-06T12:24:55.207Z,22.09
2022-09-06T12:29:54.973Z,22.16
2022-09-06T12:32:31.706Z,22.09
2022-09-06T12:37:55.976Z,22.27
2022-09-06T12:40:26.752Z,22.17
2022-09-06T12:42:55.392Z,22.25
2022-09-06T12:45:27.416Z,22.48
2022-09-06T12:48:08.605Z,22.62
2022-09-06T12:50:37.311Z,22.64
2022-09-06T12:53:23.331Z,22.83
2022-09-06T12:56:04.474Z,22.69
2022-09-06T12:58:35.865Z,22.64
2022-09-06T13:01:12.795Z,22.69
2022-09-06T13:03:49.003Z,22.69
2022-09-06T13:06:26.670Z,22.90
2022-09-06T13:08:57.819Z,22.38
2022-09-06T13:11:29.372Z,22.60
2022-09-06T13:13:57.428Z,22.78
2022-09-06T13:16:27.372Z,23.04
2022-09-06T13:19:13.315Z,23.26
2022-09-06T13:21:47.141Z,23.14
2022-09-06T13:24:23.899Z,23.06
2022-09-06T13:26:52.840Z,23.14
2022-09-06T13:29:24.438Z,22.95
2022-09-06T13:31:54.066Z,22.74
2022-09-06T13:34:25.167Z,22.86
2022-09-06T13:36:55.370Z,22.92
2022-09-06T13:39:34.402Z,23.07
2022-09-06T13:42:05.713Z,23.34
2022-09-06T13:44:35.606Z,23.33
2022-09-06T13:47:04.134Z,23.38
2022-09-06T13:49:34.280Z,23.24
2022-09-06T13:52:04.868Z,23.79
2022-09-06T13:54:34.926Z,23.68
2022-09-06T13:57:02.866Z,23.79
2022-09-06T13:59:31.536Z,23.87
2022-09-06T14:02:02.962Z,23.90
2022-09-06T14:04:31.889Z,23.94
2022-09-06T14:07:01.668Z,23.57
2022-09-06T14:09:32.011Z,23.65
2022-09-06T14:11:59.822Z,23.65
2022-09-06T14:14:30.199Z,23.85
2022-09-06T14:16:58.122Z,23.67
2022-09-06T14:19:26.250Z,23.72
2022-09-06T14:21:54.042Z,23.81
2022-09-06T14:24:23.157Z,23.87
2022-09-06T14:26:51.291Z,23.85
2022-09-06T14:29:19.166Z,23.85
2022-09-06T14:31:48.340Z,24.19
2022-09-06T14:34:16.217Z,24.09
2022-09-06T14:36:44.023Z,24.28
2022-09-06T14:39:11.924Z,24.22
2022-09-06T14:41:41.079Z,24.56
2022-09-06T14:44:10.392Z,24.41
2022-09-06T14:46:38.512Z,24.44
2022-09-06T14:49:08.455Z,24.37
2022-09-06T14:51:38.585Z,24.14
2022-09-06T14:54:09.286Z,23.98
2022-09-06T14:56:38.190Z,23.73
2022-09-06T14:59:09.164Z,23.88
2022-09-06T15:01:38.790Z,23.60
2022-09-06T15:04:09.333Z,23.53
2022-09-06T15:06:40.280Z,23.60
2022-09-06T15:09:11.210Z,23.36
2022-09-06T15:11:41.035Z,23.36
2022-09-06T15:14:14.877Z,23.27
2022-09-06T15:16:42.817Z,23.29
2022-09-06T15:19:10.557Z,23.24
2022-09-06T15:21:38.784Z,23.11
2022-09-06T15:24:11.554Z,23.08
2022-09-06T15:26:39.994Z,23.00
2022-09-06T15:29:08.558Z,23.05
2022-09-06T15:31:38.438Z,22.93
2022-09-06T15:34:07.442Z,22.97
2022-09-06T15:36:35.194Z,22.97
2022-09-06T15:39:05.323Z,22.98
2022-09-06T15:41:35.704Z,22.91
2022-09-06T15:44:08.224Z,22.97
2022-09-06T15:46:47.151Z,22.78
2022-09-06T15:49:17.355Z,22.89
2022-09-06T15:51:45.782Z,22.58
2022-09-06T15:54:15.098Z,22.79
2022-09-06T15:56:42.375Z,22.51
2022-09-06T15:59:10.621Z,22.43
2022-09-06T16:01:39.489Z,22.53
2022-09-06T16:04:09.365Z,22.30
2022-09-06T16:06:39.683Z,22.38
2022-09-06T16:09:11.708Z,22.28
2022-09-06T16:11:39.631Z,22.17
2022-09-06T16:14:09.274Z,22.00
2022-09-06T16:16:37.434Z,21.96
2022-09-06T16:19:05.445Z,21.94
2022-09-06T16:21:37.398Z,21.98
2022-09-06T16:24:08.791Z,21.76
2022-09-06T16:26:38.902Z,21.81
2022-09-06T16:29:08.167Z,21.95
2022-09-06T16:31:39.955Z,21.85
2022-09-06T16:34:08.104Z,21.75
2022-09-06T16:36:37.412Z,21.99
2022-09-06T16:39:05.961Z,22.05
2022-09-06T16:41:38.543Z,21.69
2022-09-06T16:44:06.355Z,21.82
2022-09-06T16:46:34.766Z,21.71
2022-09-06T16:49:04.360Z,21.77
2022-09-06T16:51:32.771Z,21.67
2022-09-06T16:54:05.789Z,21.65
2022-09-06T16:56:38.183Z,21.38
2022-09-06T16:59:18.196Z,21.70
2022-09-06T17:01:52.167Z,21.50
2022-09-06T17:04:26.696Z,21.32
2022-09-06T17:07:05.264Z,21.55
2022-09-06T17:09:39.486Z,21.34
2022-09-06T17:12:22.193Z,21.15
2022-09-06T17:14:58.978Z,21.10
2022-09-06T17:17:29.119Z,21.12
2022-09-06T17:20:01.637Z,21.04
2022-09-06T17:22:37.609Z,21.28
2022-09-06T17:25:13.014Z,21.18
2022-09-06T17:27:47.643Z,21.05
2022-09-06T17:30:20.965Z,21.09
2022-09-06T17:32:58.677Z,20.95
2022-09-06T17:35:37.611Z,20.88
2022-09-06T17:38:09.578Z,20.98
2022-09-06T17:40:43.548Z,20.83
2022-09-06T17:43:15.876Z,20.83
2022-09-06T17:45:50.128Z,21.05
2022-09-06T17:48:22.319Z,20.95
2022-09-06T17:51:01.507Z,20.74
2022-09-06T17:53:51.036Z,20.67
2022-09-06T17:56:24.724Z,20.69
2022-09-06T17:58:57.051Z,20.77
2022-09-06T18:01:34.177Z,20.81
2022-09-06T18:04:06.830Z,20.62
2022-09-06T18:06:41.407Z,20.61
2022-09-06T18:09:20.203Z,20.68
2022-09-06T18:11:55.254Z,20.72
2022-09-06T18:14:30.009Z,20.75
2022-09-06T18:17:02.762Z,20.78
2022-09-06T18:19:40.065Z,20.55
2022-09-06T18:22:12.384Z,20.64
2022-09-06T18:24:45.923Z,20.26
2022-09-06T18:27:29.635Z,20.64
2022-09-06T18:30:14.190Z,20.45
2022-09-06T18:32:47.407Z,20.54
2022-09-06T18:35:19.202Z,20.57
2022-09-06T18:37:50.910Z,20.41
2022-09-06T18:40:22.993Z,20.38
2022-09-06T18:42:52.277Z,20.55
2022-09-06T18:45:20.046Z,20.40
2022-09-06T18:47:48.175Z,20.29
2022-09-06T18:50:20.290Z,20.24
2022-09-06T18:52:48.140Z,20.39
2022-09-06T18:55:16.198Z,20.12
2022-09-06T18:57:43.997Z,20.06
2022-09-06T19:00:20.665Z,19.97
2022-09-06T19:02:51.199Z,20.08
2022-09-06T19:05:23.274Z,20.31
2022-09-06T19:07:51.269Z,20.21
2022-09-06T19:10:19.196Z,20.14
2022-09-06T19:12:51.317Z,20.20
2022-09-06T19:15:22.495Z,20.02
2022-09-06T19:17:52.062Z,19.83
2022-09-06T19:20:20.354Z,20.02
2022-09-06T19:22:50.519Z,19.90
2022-09-06T19:25:19.051Z,19.86
2022-09-06T19:27:48.768Z,20.02
2022-09-06T19:30:20.149Z,20.13
2022-09-06T19:32:49.259Z,19.92
2022-09-06T19:35:18.702Z,19.88
2022-09-06T19:37:46.420Z,20.08
2022-09-06T19:40:14.193Z,19.99
2022-09-06T19:42:41.923Z,19.95
2022-09-06T19:45:10.504Z,19.83
2022-09-06T19:47:38.191Z,19.95
2022-09-06T19:50:08.986Z,19.98
2022-09-06T19:52:36.794Z,19.90
2022-09-06T19:55:04.915Z,19.72
2022-09-06T19:57:32.684Z,19.81
2022-09-06T20:00:00.474Z,19.66
2022-09-06T20:02:28.229Z,19.96
2022-09-06T20:04:55.963Z,19.89
2022-09-06T20:07:25.158Z,19.81
2022-09-06T20:09:52.943Z,19.64
2022-09-06T20:12:20.924Z,19.66
2022-09-06T20:14:48.732Z,19.55
2022-09-06T20:17:33.204Z,19.75
2022-09-06T20:20:01.818Z,19.65
2022-09-06T20:22:31.019Z,19.60
2022-09-06T20:24:58.771Z,19.57
2022-09-06T20:27:26.504Z,19.57
2022-09-06T20:29:54.238Z,19.63
2022-09-06T20:32:21.936Z,19.62
2022-09-06T20:34:49.632Z,19.46
2022-09-06T20:37:17.351Z,19.52
2022-09-06T20:39:46.468Z,19.43
2022-09-06T20:42:14.215Z,19.34
2022-09-06T20:44:41.932Z,19.38
2022-09-06T20:47:09.862Z,19.41
2022-09-06T20:49:37.767Z,19.37
2022-09-06T20:52:05.502Z,19.43
2022-09-06T20:54:33.470Z,19.68
2022-09-06T20:57:02.602Z,19.49
2022-09-06T20:59:30.343Z,19.45
2022-09-06T21:01:58.571Z,19.43
2022-09-06T21:04:26.999Z,19.44
2022-09-06T21:06:54.873Z,19.39
2022-09-06T21:09:22.651Z,19.36
2022-09-06T21:11:52.126Z,19.65
2022-09-06T21:14:21.443Z,19.38
2022-09-06T21:16:49.383Z,19.40
2022-09-06T21:19:17.658Z,19.25
2022-09-06T21:21:48.525Z,19.22
2022-09-06T21:24:16.534Z,19.40
2022-09-06T21:26:44.874Z,19.32
2022-09-06T21:29:12.670Z,19.29
2022-09-06T21:31:41.870Z,19.31
2022-09-06T21:34:16.915Z,19.33
2022-09-06T21:36:45.190Z,19.30
2022-09-06T21:39:13.681Z,19.37
2022-09-06T21:41:43.179Z,19.28
2022-09-06T21:44:12.134Z,19.40
2022-09-06T21:46:42.244Z,19.39
2022-09-06T21:49:11.786Z,19.32
2022-09-06T21:51:39.940Z,19.33
2022-09-06T21:54:07.751Z,19.33
2022-09-06T21:56:37.785Z,19.24
2022-09-06T21:59:06.344Z,19.36
2022-09-06T22:01:36.001Z,19.32
2022-09-06T22:04:06.090Z,19.41
2022-09-06T22:06:35.449Z,19.10
2022-09-06T22:09:07.681Z,19.05
2022-09-06T22:11:35.927Z,19.16
2022-09-06T22:14:05.681Z,18.96
2022-09-06T22:16:35.980Z,19.09
2022-09-06T22:19:06.584Z,18.99
2022-09-06T22:21:35.206Z,18.83
2022-09-06T22:24:05.120Z,18.77
2022-09-06T22:26:34.901Z,18.65
2022-09-06T22:29:04.916Z,18.58
2022-09-06T22:31:34.186Z,18.53
2022-09-06T22:34:02.423Z,18.45
2022-09-06T22:36:31.602Z,18.41
2022-09-06T22:38:59.897Z,18.50
2022-09-06T22:41:29.765Z,18.66
2022-09-06T22:43:57.591Z,18.50
2022-09-06T22:46:25.849Z,18.67
2022-09-06T22:48:53.637Z,18.58
2022-09-06T22:51:21.721Z,18.47
2022-09-06T22:53:52.206Z,18.52
2022-09-06T22:56:20.384Z,18.48
2022-09-06T22:58:48.123Z,18.36
2022-09-06T23:01:17.568Z,18.34
2022-09-06T23:03:45.653Z,18.31
2022-09-06T23:06:13.645Z,18.34
2022-09-06T23:08:42.315Z,18.28
2022-09-06T23:11:13.215Z,18.23
2022-09-06T23:13:43.700Z,18.38
2022-09-06T23:16:18.752Z,18.25
2022-09-06T23:18:47.593Z,18.30
2022-09-06T23:21:17.279Z,18.50
2022-09-06T23:23:45.551Z,18.31
2022-09-06T23:26:16.355Z,18.57
2022-09-06T23:28:44.791Z,18.63
2022-09-06T23:31:16.127Z,18.73
2022-09-06T23:33:44.610Z,18.43
2022-09-06T23:36:14.577Z,18.41
2022-09-06T23:38:43.039Z,18.25
2022-09-06T23:41:11.334Z,18.39
2022-09-06T23:43:42.117Z,18.28
2022-09-06T23:46:11.119Z,18.16
2022-09-06T23:48:39.466Z,18.21
2022-09-06T23:51:07.558Z,18.17
2022-09-06T23:53:35.997Z,18.21
2022-09-06T23:56:04.308Z,18.10
2022-09-06T23:58:32.239Z,18.14
